Destinations Hannover Airport

Hannover Airport (EDDV / HAJ)

Flights to Hannover Airport

Flight number From ETE Dispatch
SPY-114 EHGG Groningen Airport Eelde 01:00
SPY-2418 EGPH Edinburgh Airport 01:55

Flights from Hannover Airport

Flight number To ETE Dispatch
SPY-115 EHGG Groningen Airport Eelde
SPY-2419 EGPH Edinburgh Airport 01:55
About

Hannover Airport facts

Hannover Airport is located in Hannover at an elevation of 55.8 meters or 183 feet.

Currently, Speedy Airlines serves 4 flights to and from Hannover Airport.

Detailed airport info

Route map

Weather

Current weather

METAR

METAR

Metar data retrieved Sunday, 21 July 2024 at 18:55 UTC

EDDV 211820Z AUTO 04003KT CAVOK 21/19 Q1008 NOSIG
Wind Temperature
3 kt 21c